Les Masies de Roda





Hora UTC 23:15
Temperatura 8.2 ºC
Sòl 15 cm 7.3 ºC
Subsòl 10 cm 9.3 ºC
Humitat 95.0 %
Pressió 1014.9 hPa
Pluja 1.6 mm
Velocitat vent 0.0 km/h
Direcció vent NNE
Radiació solar 0.1 W/m²

Dades diàries 2020-03-31



Hora UTC (hivern +1h; estiu +2h)
Temperatura (ºC) Humitat (%) Pressió (hPa) Velocitat vent (km/h) Precipitació (mm) Radiació solar (W/m²)
Hora UTC Aire Sòl 15 cm Subsòl 10 cm Humitat Pressió Vel. Dir. Vel. Max Dir. Intent. màx 5 min. Rad. Sol.
00:05 6.0 5.4 8.5 95.7 1013.2 0.5 E 6.1 E 0.0 0.1
00:10 6.0 5.4 8.5 95.6 1013.2 0.0 NNE 0.0 E 0.0 0.1
00:15 6.1 5.5 8.5 95.7 1013.2 0.0 NNE 0.0 E 0.0 0.1
00:20 6.1 5.5 8.5 95.7 1013.2 0.0 NNE 0.0 NE 0.0 0.1
00:25 6.1 5.5 8.5 95.8 1013.2 0.0 NNE 0.0 NNW 0.0 0.1
00:30 6.1 5.5 8.5 95.9 1013.2 0.0 NNE 0.0 NW 0.0 0.1
00:35 6.1 5.6 8.5 96.0 1013.3 0.0 NNE 0.0 NW 0.0 0.1
00:40 6.1 5.6 8.5 96.0 1013.1 0.0 NNE 0.0 NW 0.0 0.1
00:45 6.2 5.6 8.5 96.0 1013.0 0.0 NNE 0.0 NE 0.0 0.1
00:50 6.2 5.7 8.5 95.8 1013.1 0.0 NNE 0.0 NNE 0.0 0.1
00:55 6.2 5.7 8.5 95.6 1013.0 0.0 NNE 0.0 NNE 0.0 0.1
01:00 6.2 5.7 8.5 95.5 1013.0 0.0 NNE 0.0 NNE 0.0 0.1
01:05 6.2 5.7 8.4 95.4 1012.9 0.0 NNE 0.0 NNE 0.0 0.1
01:10 6.2 5.7 8.4 95.6 1012.9 0.0 NNE 0.0 N 0.0 0.1
01:15 6.3 5.7 8.4 95.5 1012.9 0.0 NNE 0.0 N 0.0 0.1
01:20 6.3 5.7 8.4 95.4 1012.8 0.0 NNE 0.0 N 0.0 0.1
01:25 6.3 5.8 8.4 95.5 1012.8 0.0 NNE 0.0 N 0.0 0.1
01:30 6.3 5.8 8.4 95.5 1012.7 0.0 NNE 0.0 N 0.0 0.1
01:35 6.4 5.8 8.4 95.4 1012.7 0.0 NNE 0.0 NNE 0.0 0.1
01:40 6.4 5.8 8.4 95.3 1012.6 2.3 NNE 6.1 N 0.0 0.1
01:45 6.4 5.8 8.4 95.5 1012.5 1.2 NNE 6.1 NE 0.0 0.1
01:50 6.4 5.8 8.4 95.6 1012.5 0.0 NNE 0.0 N 0.0 0.1
01:55 6.4 5.8 8.4 95.6 1012.5 0.0 NNE 0.0 NNE 0.0 0.1
02:00 6.4 5.8 8.4 95.6 1012.5 0.3 NNW 3.4 NNW 0.0 0.1
02:05 6.3 5.8 8.4 95.7 1012.4 0.0 NNE 0.0 NNW 0.0 0.1
02:10 6.3 5.8 8.4 95.7 1012.4 0.0 NNE 0.0 NNW 0.0 0.1
02:15 6.3 5.8 8.4 95.7 1012.4 0.0 NNE 0.0 NNW 0.0 0.1
02:20 6.3 5.8 8.4 95.6 1012.4 0.5 N 6.1 N 0.0 0.1
02:25 6.3 5.7 8.3 95.3 1012.5 0.0 NNE 0.0 NNE 0.0 0.1
02:30 6.3 5.7 8.3 95.1 1012.5 0.0 NNE 0.0 NNW 0.0 0.1
02:35 6.3 5.7 8.4 94.8 1012.5 0.0 NNE 0.0 NNW 0.0 0.1
02:40 6.4 5.7 8.4 94.5 1012.4 0.0 NNE 0.0 NNW 0.0 0.1
02:45 6.4 5.7 8.4 94.2 1012.4 0.0 NNE 0.0 NNW 0.0 0.1
02:50 6.4 5.8 8.4 94.2 1012.5 0.0 NNE 0.0 NNW 0.0 0.1
02:55 6.5 5.8 8.4 94.3 1012.5 0.0 NNE 0.0 NNW 0.0 0.1
03:00 6.5 5.8 8.4 94.4 1012.5 0.0 NNE 0.0 NNE 0.0 0.1
03:05 6.5 5.8 8.4 94.3 1012.5 0.0 NNE 0.0 N 0.0 0.1
03:10 6.5 5.8 8.4 93.4 1012.4 0.0 NNE 0.0 NE 0.0 0.1
03:15 6.5 5.9 8.4 92.7 1012.4 0.0 NNE 0.0 NE 0.0 0.1
03:20 6.6 5.9 8.4 92.7 1012.3 1.5 ENE 8.8 ENE 0.0 0.1
03:25 6.6 5.9 8.4 92.9 1012.3 0.1 ENE 3.4 NE 0.0 0.1
03:30 6.6 5.9 8.4 91.3 1012.3 0.0 NNE 0.0 NE 0.0 0.1
03:35 6.6 5.9 8.4 90.0 1012.3 0.8 NE 6.1 NE 0.0 0.1
03:40 6.7 5.9 8.4 89.3 1012.3 3.3 ESE 11.5 ESE 0.0 0.1
03:45 6.7 5.8 8.3 87.5 1012.3 1.1 E 6.1 E 0.0 0.1
03:50 6.8 5.8 8.3 87.1 1012.4 1.2 ESE 8.8 SE 0.0 0.1
03:55 6.8 5.8 8.3 86.1 1012.5 2.0 ESE 6.1 ESE 0.0 0.1
04:00 6.9 5.7 8.3 85.6 1012.6 4.7 SE 11.5 SSE 0.0 0.1
04:05 6.9 5.7 8.3 85.4 1012.7 4.4 SE 11.5 SE 0.0 0.1
04:10 6.9 5.6 8.3 85.3 1012.7 2.7 ESE 8.8 ESE 0.0 0.1
04:15 6.9 5.6 8.3 85.2 1012.7 4.7 ESE 11.5 ESE 0.0 0.1
04:20 6.9 5.6 8.3 84.8 1012.7 6.0 ESE 8.8 ESE 0.0 0.1
04:25 6.9 5.6 8.3 85.6 1012.7 4.3 ESE 11.5 ENE 0.0 0.1
04:30 6.9 5.6 8.3 85.1 1012.7 7.9 ESE 14.2 SE 0.0 0.1
04:35 6.9 5.6 8.3 85.2 1012.7 8.8 ESE 14.2 ESE 0.0 0.1
04:40 6.8 5.6 8.3 85.5 1012.6 6.9 ESE 14.2 ESE 0.0 0.1
04:45 6.8 5.6 8.3 85.4 1012.6 9.9 ESE 16.9 E 0.0 0.1
04:50 6.9 5.6 8.2 85.3 1012.5 7.9 E 14.2 ESE 0.0 0.1
04:55 6.9 5.7 8.2 86.1 1012.5 3.7 E 11.5 E 0.0 0.1
05:00 6.9 5.7 8.2 87.6 1012.5 6.2 NE 11.5 ENE 0.0 0.1
05:05 6.8 5.7 8.3 88.4 1012.4 5.1 ENE 8.8 ENE 0.0 0.1
05:10 6.7 5.8 8.3 89.6 1012.4 4.3 E 6.1 ENE 0.0 0.1
05:15 6.6 5.8 8.3 89.9 1012.4 3.9 E 8.8 E 0.0 0.1
05:20 6.6 5.8 8.3 91.1 1012.3 2.7 ENE 6.1 ENE 0.0 0.1
05:25 6.6 5.8 8.3 91.5 1012.4 0.6 E 6.1 E 0.0 0.2
05:30 6.6 5.8 8.3 91.1 1012.4 0.0 NNE 0.0 ENE 0.0 0.3
05:35 6.6 5.7 8.3 90.6 1012.5 0.0 NNE 0.0 ENE 0.0 0.7
05:40 6.6 5.7 8.3 90.5 1012.6 0.0 NNE 0.0 ENE 0.0 1.0
05:45 6.5 5.7 8.3 89.3 1012.7 0.0 NNE 0.0 SSE 0.0 2.2
05:50 6.6 5.7 8.3 88.1 1012.9 0.0 NNE 0.0 SSW 0.0 4.0
05:55 6.6 5.7 8.3 87.5 1013.0 0.4 ESE 6.1 SE 0.0 6.5
06:00 6.7 5.7 8.3 86.7 1013.1 0.0 NNE 0.0 E 0.0 13.5
06:05 6.8 5.8 8.3 86.3 1013.1 0.0 NNE 0.0 E 0.0 24.1
06:10 6.8 6.0 8.3 86.3 1013.2 0.0 NNE 0.0 ESE 0.0 39.5
06:15 6.9 6.1 8.3 87.6 1013.3 0.0 NNE 0.0 ENE 0.0 43.9
06:20 6.9 6.3 8.4 88.2 1013.4 0.0 NNE 0.0 ENE 0.0 50.1
06:25 7.0 6.6 8.4 89.3 1013.4 0.0 NNE 0.0 ENE 0.0 56.7
06:30 7.1 6.8 8.4 89.2 1013.5 0.0 NNE 0.0 NE 0.0 54.1
06:35 7.1 7.0 8.5 88.6 1013.5 0.0 NNE 0.0 NE 0.0 56.5
06:40 7.2 7.2 8.5 89.0 1013.5 0.0 NNE 0.0 NE 0.0 63.2
06:45 7.2 7.3 8.5 88.2 1013.4 2.9 NE 8.8 NE 0.0 75.0
06:50 7.2 7.4 8.5 87.1 1013.3 8.6 ENE 11.5 NE 0.0 82.8
06:55 7.2 7.5 8.5 86.8 1013.2 9.2 ENE 14.2 ENE 0.0 89.9
07:00 7.3 7.5 8.5 87.3 1013.2 6.5 NE 11.5 ENE 0.0 91.1
07:05 7.4 7.6 8.5 87.3 1013.3 1.7 ENE 6.1 ENE 0.0 82.9
07:10 7.4 7.8 8.5 85.9 1013.3 0.8 NE 3.4 NE 0.0 79.0
07:15 7.5 8.0 8.6 86.2 1013.2 0.4 ENE 3.4 NE 0.0 91.0
07:20 7.6 8.2 8.6 86.0 1013.2 2.2 ENE 8.8 ENE 0.0 115.8
07:25 7.6 8.5 8.7 86.7 1013.2 3.0 NE 6.1 NE 0.0 134.2
07:30 7.7 8.6 8.7 86.3 1013.1 1.7 NE 6.1 NNE 0.0 154.4
07:35 7.7 8.9 8.8 86.3 1013.1 1.3 NE 6.1 NE 0.0 170.6
07:40 7.9 9.2 8.8 86.4 1013.2 1.4 ENE 6.1 NE 0.0 179.2
07:45 8.0 9.6 8.9 84.4 1013.2 0.8 ENE 3.4 ENE 0.0 190.7
07:50 8.1 9.9 9.0 84.2 1013.3 1.0 NE 6.1 NNE 0.0 217.8
07:55 8.2 10.3 9.0 83.9 1013.3 0.8 NNE 6.1 NNE 0.0 250.6
08:00 8.5 10.7 9.1 83.5 1013.3 0.0 NNE 0.0 NE 0.0 237.9
08:05 8.7 10.9 9.2 83.0 1013.3 1.1 W 6.1 W 0.0 257.5
08:10 8.8 11.2 9.3 82.9 1013.3 1.8 NW 6.1 WNW 0.0 265.0
08:15 8.9 11.4 9.3 83.0 1013.3 0.3 WNW 3.4 WNW 0.0 240.1
08:20 8.9 11.5 9.4 81.6 1013.3 1.1 N 6.1 N 0.0 261.4
08:25 9.0 11.9 9.4 81.7 1013.3 2.0 N 6.1 NNW 0.0 321.8
08:30 9.3 12.6 9.5 81.2 1013.3 2.1 NE 6.1 NNE 0.0 414.5
08:35 9.7 13.9 9.7 78.8 1013.3 3.3 NNE 8.8 N 0.0 521.5
08:40 10.4 15.0 9.9 77.2 1013.3 1.2 SE 6.1 SSE 0.0 511.6
08:45 10.8 15.7 10.1 74.4 1013.3 3.2 S 8.8 SW 0.0 532.7
08:50 10.8 16.0 10.3 77.2 1013.3 2.3 N 8.8 NE 0.0 426.1
08:55 11.0 16.2 10.4 76.0 1013.4 3.4 NE 8.8 NNE 0.0 342.7
09:00 11.0 15.9 10.3 74.7 1013.3 2.6 E 8.8 SE 0.0 236.7
09:05 10.8 15.4 10.3 75.5 1013.3 5.5 ENE 11.5 ENE 0.0 224.9
09:10 10.7 15.1 10.3 75.8 1013.2 4.8 E 8.8 NE 0.0 217.6
09:15 10.8 14.7 10.3 75.7 1013.2 2.6 ESE 6.1 E 0.0 177.3
09:20 10.7 14.0 10.3 75.9 1013.3 2.4 ESE 8.8 SE 0.0 153.6
09:25 10.7 13.6 10.3 76.2 1013.2 5.0 E 11.5 E 0.0 152.8
09:30 10.5 13.1 10.3 76.2 1013.3 5.7 ESE 11.5 ESE 0.0 150.8
09:35 10.5 12.6 10.2 76.9 1013.3 6.0 ESE 11.5 SE 0.0 139.3
09:40 10.4 12.4 10.2 77.2 1013.3 5.7 ESE 11.5 ESE 0.0 133.0
09:45 10.4 12.1 10.2 78.5 1013.3 5.0 ESE 8.8 E 0.0 139.4
09:50 10.4 12.0 10.2 77.3 1013.3 7.1 SE 11.5 SE 0.0 169.8
09:55 10.4 12.0 10.2 77.4 1013.3 6.1 ESE 11.5 SE 0.0 175.7
10:00 10.4 12.0 10.2 77.2 1013.4 6.4 ESE 14.2 ESE 0.0 171.0
10:05 10.4 12.0 10.2 77.2 1013.4 6.9 E 11.5 E 0.0 173.1
10:10 10.5 12.1 10.2 77.5 1013.4 4.9 SE 11.5 SSE 0.0 183.3
10:15 10.6 12.2 10.3 77.2 1013.4 7.0 ESE 14.2 SE 0.0 181.2
10:20 10.6 12.2 10.3 77.0 1013.5 6.6 ESE 11.5 E 0.0 154.6
10:25 10.5 12.0 10.3 77.1 1013.5 8.1 ESE 16.9 ESE 0.0 133.9
10:30 10.5 11.8 10.2 77.5 1013.4 7.0 ESE 11.5 ESE 0.0 128.0
10:35 10.5 11.7 10.2 77.9 1013.4 6.6 ESE 14.2 E 0.0 130.0
10:40 10.5 11.8 10.2 78.4 1013.4 8.0 E 14.2 ESE 0.0 151.7
10:45 10.6 11.9 10.3 78.2 1013.4 6.1 E 14.2 E 0.0 170.7
10:50 10.7 12.3 10.3 78.4 1013.3 4.8 E 8.8 E 0.0 186.0
10:55 10.7 12.5 10.3 78.0 1013.3 6.9 E 11.5 ESE 0.0 207.3
11:00 10.7 12.9 10.4 77.4 1013.3 6.5 E 14.2 E 0.0 219.7
11:05 10.8 13.3 10.5 77.1 1013.2 3.7 E 8.8 E 0.0 203.5
11:10 10.9 13.3 10.6 76.5 1013.2 3.7 ESE 8.8 ESE 0.0 181.6
11:15 11.0 13.2 10.6 76.7 1013.2 1.3 E 6.1 ENE 0.0 171.5
11:20 11.0 13.1 10.6 77.0 1013.2 4.7 SE 8.8 E 0.0 173.0
11:25 10.9 12.8 10.6 77.2 1013.2 5.7 SE 8.8 SSE 0.0 184.1
11:30 10.8 12.7 10.6 77.7 1013.1 5.6 ESE 11.5 ESE 0.0 188.0
11:35 10.9 12.9 10.6 77.8 1013.0 5.5 E 8.8 E 0.0 186.8
11:40 10.9 13.0 10.6 77.6 1013.0 2.8 E 6.1 E 0.0 203.0
11:45 11.1 13.1 10.7 78.8 1013.0 4.5 S 8.8 S 0.0 205.4
11:50 11.2 13.3 10.8 78.8 1013.0 2.4 SSE 6.1 S 0.0 203.7
11:55 11.2 13.3 10.8 77.0 1013.0 3.8 SSE 8.8 SSE 0.0 198.2
12:00 11.2 13.2 10.9 77.2 1013.0 4.7 SSE 11.5 ESE 0.0 203.0
12:05 11.2 13.3 10.9 76.1 1013.0 5.4 SE 11.5 SE 0.0 216.9
12:10 11.3 13.5 10.9 75.4 1013.0 5.3 SE 11.5 ESE 0.0 241.2
12:15 11.4 13.8 10.9 75.0 1013.0 5.3 ESE 11.5 E 0.0 255.3
12:20 11.4 14.0 11.0 75.1 1013.0 8.1 SE 14.2 SE 0.0 236.0
12:25 11.3 13.8 11.0 75.1 1013.0 8.9 ESE 14.2 ESE 0.0 215.8
12:30 11.3 13.8 11.0 75.6 1013.0 7.0 SE 14.2 ESE 0.0 198.2
12:35 11.3 13.6 10.9 75.5 1013.0 8.0 ESE 14.2 E 0.0 181.7
12:40 11.1 13.3 10.9 76.0 1013.0 9.4 ESE 16.9 ESE 0.0 142.8
12:45 11.1 13.0 10.8 76.6 1013.0 5.7 ESE 11.5 SE 0.0 124.3
12:50 11.2 12.8 10.8 76.8 1013.1 5.1 ESE 11.5 E 0.0 111.8
12:55 11.2 12.3 10.7 76.2 1013.1 7.7 ESE 14.2 ESE 0.0 88.6
13:00 11.1 12.0 10.7 76.7 1013.1 5.3 SE 11.5 SE 0.0 78.2
13:05 11.1 11.7 10.6 76.9 1013.1 5.9 ESE 14.2 E 0.0 76.3
13:10 10.9 11.4 10.6 77.2 1013.1 9.0 ESE 16.9 SE 0.0 75.3
13:15 10.9 11.2 10.6 77.9 1013.0 7.6 ESE 11.5 E 0.0 72.7
13:20 10.8 11.0 10.5 78.0 1013.1 6.7 ESE 14.2 SE 0.0 69.7
13:25 10.8 10.9 10.5 78.3 1013.1 5.9 ESE 14.2 E 0.0 71.4
13:30 10.9 10.8 10.5 78.8 1013.1 4.5 ESE 11.5 ESE 0.0 74.8
13:35 10.9 10.7 10.5 78.9 1013.1 5.6 ESE 11.5 ESE 0.0 68.6
13:40 10.9 10.6 10.4 78.7 1013.1 6.7 SE 14.2 ESE 0.0 65.5
13:45 10.9 10.6 10.4 78.8 1013.1 8.0 SE 14.2 SE 0.0 67.5
13:50 10.9 10.5 10.4 78.5 1013.1 6.0 SE 14.2 SE 0.0 65.0
13:55 10.9 10.5 10.4 78.2 1013.1 6.2 SE 14.2 SE 0.0 63.5
14:00 10.9 10.5 10.4 77.8 1013.0 7.2 ESE 11.5 ESE 0.0 63.9
14:05 10.9 10.5 10.4 78.7 1013.0 7.4 E 11.5 ENE 0.0 64.6
14:10 10.9 10.6 10.3 79.0 1012.8 5.6 E 14.2 E 0.0 77.6
14:15 11.0 10.8 10.4 80.6 1012.8 5.0 ENE 8.8 ENE 0.0 82.5
14:20 11.0 10.9 10.4 78.8 1012.7 7.8 ESE 14.2 E 0.0 76.2
14:25 11.1 10.9 10.4 77.3 1012.7 7.6 ESE 16.9 ESE 0.0 67.7
14:30 11.1 10.8 10.4 76.7 1012.7 9.1 ESE 14.2 ESE 0.0 62.3
14:35 11.1 10.7 10.4 76.8 1012.8 7.5 SE 16.9 SSE 0.0 55.2
14:40 11.1 10.6 10.3 77.4 1012.8 8.2 SE 16.9 ESE 0.0 60.5
14:45 11.1 10.7 10.3 77.6 1012.8 8.2 SE 14.2 SE 0.0 70.3
14:50 11.1 10.7 10.3 77.7 1012.9 5.9 SE 16.9 SE 0.0 71.4
14:55 11.2 10.8 10.3 77.8 1012.9 4.5 SE 14.2 SE 0.0 75.1
15:00 11.2 10.8 10.3 77.0 1012.9 8.8 SE 14.2 SE 0.0 87.8
15:05 11.3 11.0 10.3 75.9 1012.9 8.7 SE 14.2 ESE 0.0 97.2
15:10 11.3 11.1 10.4 75.5 1012.9 8.2 SE 16.9 SE 0.0 96.0
15:15 11.4 11.3 10.4 75.7 1012.9 7.7 SE 16.9 ESE 0.0 92.1
15:20 11.4 11.3 10.4 75.2 1012.9 9.4 ESE 16.9 E 0.0 100.5
15:25 11.4 11.4 10.4 75.4 1012.9 11.2 ESE 19.6 SE 0.0 106.2
15:30 11.3 11.3 10.4 75.5 1012.9 10.4 ESE 19.6 ESE 0.0 86.2
15:35 11.3 11.2 10.4 75.8 1013.0 10.3 ESE 19.6 ESE 0.0 87.9
15:40 11.2 11.1 10.3 76.2 1013.0 10.8 ESE 19.6 SE 0.0 75.5
15:45 11.2 11.0 10.3 76.4 1013.0 9.4 ESE 16.9 ESE 0.0 65.1
15:50 11.2 10.8 10.3 76.3 1013.0 11.3 ESE 19.6 E 0.0 53.3
15:55 11.2 10.6 10.3 74.4 1013.0 11.9 ESE 19.6 E 0.0 42.8
16:00 11.2 10.5 10.2 75.5 1013.0 6.9 E 14.2 E 0.0 37.8
16:05 11.2 10.4 10.2 76.6 1013.0 6.9 E 14.2 ESE 0.0 36.3
16:10 11.1 10.4 10.2 78.5 1013.0 6.1 ENE 11.5 ENE 0.0 36.2
16:15 11.0 10.3 10.2 79.9 1013.0 6.2 ENE 8.8 NE 0.0 34.2
16:20 10.9 10.2 10.2 80.9 1013.0 4.0 ENE 8.8 ENE 0.0 31.8
16:25 10.9 10.2 10.2 80.4 1013.0 3.8 ENE 11.5 E 0.0 30.5
16:30 11.0 10.1 10.2 78.3 1013.0 5.7 E 11.5 ENE 0.0 29.1
16:35 10.9 10.0 10.2 79.0 1013.0 5.4 E 11.5 ENE 0.0 27.2
16:40 11.0 10.0 10.2 76.9 1012.9 4.6 E 11.5 E 0.0 25.0
16:45 11.0 9.9 10.1 78.0 1013.0 3.6 E 6.1 ESE 0.0 23.9
16:50 11.0 9.9 10.2 78.2 1013.0 1.0 SE 6.1 SE 0.0 21.1
16:55 11.0 9.9 10.2 78.4 1013.1 2.2 SE 6.1 E 0.0 20.1
17:00 10.9 9.7 10.1 79.1 1013.2 5.4 SE 11.5 SSE 0.0 18.6
17:05 10.8 9.6 10.1 79.2 1013.2 6.8 SE 11.5 ESE 0.0 17.0
17:10 10.7 9.6 10.1 79.3 1013.3 5.8 SE 14.2 SE 0.0 15.4
17:15 10.6 9.5 10.1 79.4 1013.3 6.0 ESE 11.5 ESE 0.0 14.3
17:20 10.5 9.4 10.0 79.8 1013.4 8.5 ESE 14.2 ESE 0.0 13.6
17:25 10.4 9.3 10.0 80.2 1013.4 8.8 ESE 14.2 ESE 0.0 12.5
17:30 10.3 9.3 10.0 80.8 1013.4 6.7 ESE 11.5 E 0.0 11.6
17:35 10.3 9.2 10.0 80.8 1013.4 7.8 ESE 16.9 ESE 0.0 9.9
17:40 10.3 9.0 9.9 80.8 1013.5 9.0 ESE 16.9 E 0.0 7.5
17:45 10.2 8.9 9.9 81.1 1013.5 10.3 ESE 16.9 ESE 0.0 5.8
17:50 10.1 8.9 9.9 81.6 1013.5 7.0 ESE 11.5 SE 0.0 4.2
17:55 10.1 8.8 9.9 82.2 1013.6 5.1 E 11.5 E 0.0 3.2
18:00 10.0 8.7 9.9 83.7 1013.5 5.3 E 11.5 E 0.0 2.4
18:05 9.9 8.6 9.8 82.8 1013.6 6.8 E 11.5 E 0.0 1.6
18:10 9.9 8.4 9.8 82.7 1013.7 6.0 ESE 14.2 E 0.0 1.0
18:15 9.9 8.3 9.8 84.3 1013.8 3.4 SE 8.8 SSE 0.0 0.6
18:20 9.7 8.2 9.8 85.7 1013.9 4.8 SE 8.8 SSE 0.0 0.3
18:25 9.6 8.2 9.8 86.2 1014.0 6.6 SE 11.5 SE 0.0 0.2
18:30 9.5 8.1 9.8 86.3 1014.0 4.7 ESE 11.5 SE 0.1 0.1
18:35 9.5 8.0 9.7 86.7 1014.0 2.4 ESE 6.1 ESE 0.0 0.1
18:40 9.4 8.0 9.7 87.8 1014.1 2.7 SE 6.1 E 0.0 0.1
18:45 9.4 8.0 9.7 88.5 1014.2 0.1 SSE 3.4 ESE 0.1 0.1
18:50 9.3 8.0 9.7 88.8 1014.3 2.4 SE 8.8 SE 0.0 0.1
18:55 9.2 7.9 9.7 88.4 1014.4 4.4 SE 11.5 SE 0.1 0.1
19:00 9.1 7.8 9.7 87.9 1014.5 4.9 ESE 8.8 SE 0.0 0.1
19:05 9.0 7.8 9.7 88.4 1014.6 5.2 ESE 8.8 ESE 0.1 0.1
19:10 9.0 7.7 9.6 88.8 1014.7 4.2 SE 8.8 SE 0.0 0.1
19:15 8.9 7.7 9.6 89.0 1014.7 4.3 ESE 8.8 ESE 0.1 0.1
19:20 8.9 7.6 9.6 89.5 1014.8 3.3 ESE 11.5 ESE 0.1 0.1
19:25 8.8 7.6 9.6 89.9 1014.8 2.4 E 11.5 ESE 0.1 0.1
19:30 8.7 7.5 9.6 89.7 1014.8 3.6 E 8.8 ESE 0.1 0.1
19:35 8.7 7.5 9.6 89.9 1014.8 2.5 ENE 6.1 ESE 0.0 0.1
19:40 8.6 7.4 9.6 89.8 1014.8 1.9 E 8.8 E 0.0 0.1
19:45 8.6 7.4 9.6 90.7 1014.8 1.9 ENE 6.1 ENE 0.1 0.1
19:50 8.5 7.3 9.5 91.6 1014.8 0.5 ENE 6.1 NE 0.1 0.1
19:55 8.5 7.3 9.5 91.8 1014.9 0.6 NE 3.4 ENE 0.0 0.1
20:00 8.4 7.2 9.6 92.2 1014.9 0.0 NNE 0.0 NE 0.0 0.1
20:05 8.4 7.2 9.5 92.4 1014.9 2.9 NE 6.1 NE 0.1 0.1
20:10 8.3 7.2 9.5 92.8 1014.9 1.2 NE 6.1 NE 0.1 0.1
20:15 8.3 7.2 9.5 93.4 1014.9 0.0 NNE 0.0 ENE 0.0 0.1
20:20 8.2 7.1 9.5 93.7 1015.0 0.0 ENE 3.4 NE 0.1 0.1
20:25 8.1 7.1 9.5 93.9 1015.0 0.1 WNW 3.4 WNW 0.1 0.1
20:30 8.0 7.0 9.5 94.4 1015.0 0.6 WNW 6.1 WNW 0.0 0.1
20:35 8.0 7.0 9.5 94.6 1015.0 0.0 NNE 0.0 NW 0.0 0.1
20:40 8.0 6.9 9.5 94.2 1015.1 0.0 NNE 0.0 NW 0.0 0.1
20:45 8.1 6.9 9.4 94.7 1015.1 0.0 NNE 0.0 NW 0.0 0.1
20:50 8.0 7.0 9.4 95.2 1015.1 0.2 ENE 6.1 ENE 0.0 0.1
20:55 8.0 7.0 9.4 95.4 1015.1 1.0 ENE 6.1 ENE 0.1 0.1
21:00 7.9 7.0 9.4 95.3 1015.2 0.0 NNE 0.0 NE 0.0 0.1
21:05 7.9 7.0 9.4 95.3 1015.2 0.0 NNE 0.0 ENE 0.0 0.1
21:10 7.9 7.0 9.4 95.3 1015.2 1.6 ENE 8.8 ENE 0.0 0.1
21:15 7.9 7.0 9.4 95.0 1015.2 4.0 NE 11.5 ENE 0.0 0.1
21:20 8.0 7.0 9.4 94.8 1015.2 0.2 NNE 3.4 NE 0.0 0.1
21:25 8.0 7.0 9.4 94.9 1015.2 1.3 NE 6.1 NE 0.0 0.1
21:30 8.0 7.0 9.4 94.9 1015.1 0.0 NNE 0.0 NNE 0.0 0.1
21:35 8.0 7.0 9.3 94.9 1015.1 0.7 NNE 6.1 N 0.0 0.1
21:40 8.0 7.0 9.3 94.8 1015.1 0.0 NNE 0.0 NNE 0.0 0.1
21:45 8.0 7.0 9.3 94.8 1015.1 0.0 NNE 0.0 NNW 0.0 0.1
21:50 8.0 7.0 9.3 94.9 1015.0 0.0 NNE 0.0 NNW 0.0 0.1
21:55 8.0 7.0 9.3 94.7 1015.0 0.0 NNE 0.0 NNW 0.0 0.1
22:00 8.1 6.9 9.3 94.7 1015.0 0.0 NNE 0.0 NNW 0.0 0.1
22:05 8.0 6.9 9.3 94.6 1015.0 0.9 NE 6.1 NE 0.0 0.1
22:10 8.0 7.0 9.3 94.2 1015.0 0.0 NNE 0.0 NE 0.0 0.1
22:15 8.1 7.0 9.3 93.5 1015.1 0.0 NNE 0.0 E 0.0 0.1
22:20 8.1 7.0 9.3 93.2 1015.0 0.0 NNE 0.0 ENE 0.0 0.1
22:25 8.1 7.0 9.3 93.7 1014.9 0.0 NNE 0.0 NE 0.0 0.1
22:30 8.1 7.0 9.3 93.8 1015.0 0.0 NNE 0.0 NE 0.0 0.1
22:35 8.0 7.0 9.3 94.4 1015.0 0.0 NNE 0.0 NE 0.0 0.1
22:40 8.0 7.0 9.3 94.2 1015.0 0.0 NNE 0.0 NE 0.0 0.1
22:45 8.1 7.1 9.3 94.2 1015.0 0.0 NNE 0.0 NE 0.0 0.1
22:50 8.1 7.1 9.3 94.4 1015.0 0.0 NNE 0.0 E 0.0 0.1
22:55 8.1 7.1 9.3 94.5 1015.0 0.0 NNE 0.0 E 0.1 0.1
23:00 8.1 7.2 9.3 94.3 1014.9 0.0 NNE 0.0 E 0.0 0.1
23:05 8.1 7.2 9.3 94.5 1015.0 0.0 NNE 0.0 E 0.0 0.1
23:10 8.2 7.3 9.3 94.6 1015.0 0.0 NNE 0.0 E 0.0 0.1
23:15 8.2 7.3 9.3 95.0 1014.9 0.0 NNE 0.0 NE 0.0 0.1
Màxima 11.5 16.2 11.0 96.0 1015.2 11.9 ESE 19.6 E 0.1 532.7
Mínima 6.0 5.4 8.2 74.4 1012.3
Total 1.6